Time;durP1;ratioP1;P1;durP2;ratioP2;P2;SDS_P1;SDS_P2;PMS_P1;PMS_P2;Temp;Humidity;BMP_temperature;BMP_pressure;BME280_temperature;BME280_humidity;BME280_pressure;Samples;Min_cycle;Max_cycle;Signal;HPM_P1;HPM_P2
2022/12/05 00:00:23;;;;;;;27.75;14.32;;;5.20;99.90;;;;;;5089440;28;20037;-88
2022/12/05 00:02:49;;;;;;;26.55;13.35;;;5.20;99.90;;;;;;5072027;28;20032;-88
2022/12/05 00:05:14;;;;;;;26.70;13.85;;;5.20;99.90;;;;;;5088590;28;20718;-88
2022/12/05 00:07:40;;;;;;;27.42;13.63;;;5.20;99.90;;;;;;5098213;28;20031;-88
2022/12/05 00:10:06;;;;;;;25.23;12.90;;;5.20;99.90;;;;;;5098248;28;20036;-87
2022/12/05 00:12:31;;;;;;;21.73;11.88;;;5.30;99.90;;;;;;5087425;28;20565;-88
2022/12/05 00:14:57;;;;;;;27.13;13.23;;;5.30;99.90;;;;;;5090563;28;20043;-88
2022/12/05 00:17:23;;;;;;;20.83;11.43;;;5.30;99.90;;;;;;5071805;28;20450;-87
2022/12/05 00:19:48;;;;;;;25.40;13.38;;;5.30;99.90;;;;;;5116441;28;20036;-87
2022/12/05 00:22:14;;;;;;;24.55;12.57;;;5.30;99.90;;;;;;5071842;28;20073;-87
2022/12/05 00:24:39;;;;;;;27.00;13.32;;;5.30;99.90;;;;;;5074232;28;20040;-87
2022/12/05 00:27:05;;;;;;;25.67;14.65;;;5.30;99.90;;;;;;5073311;28;20077;-87
2022/12/05 00:29:31;;;;;;;25.67;12.65;;;5.30;99.90;;;;;;5088469;28;20082;-88
2022/12/05 00:31:56;;;;;;;24.25;13.43;;;5.30;99.90;;;;;;5099713;28;20036;-87
2022/12/05 00:34:22;;;;;;;21.73;12.00;;;5.30;99.90;;;;;;5109964;28;20077;-88
2022/12/05 00:36:48;;;;;;;21.83;12.18;;;5.40;99.90;;;;;;5108600;28;20489;-88
2022/12/05 00:39:14;;;;;;;23.15;12.05;;;5.40;99.90;;;;;;5093433;28;20542;-88
2022/12/05 00:41:40;;;;;;;22.67;11.57;;;5.40;99.90;;;;;;5112456;28;20044;-88
2022/12/05 00:44:07;;;;;;;22.48;11.65;;;5.40;99.90;;;;;;5090485;28;20055;-88
2022/12/05 00:46:34;;;;;;;22.55;11.57;;;5.40;99.90;;;;;;5093475;28;20108;-88
2022/12/05 00:49:01;;;;;;;22.77;11.70;;;5.40;99.90;;;;;;5093470;28;20574;-88
2022/12/05 00:51:35;;;;;;;22.23;12.30;;;5.40;99.90;;;;;;5083282;28;20410;-88
2022/12/05 00:54:04;;;;;;;24.80;11.50;;;5.40;99.90;;;;;;5076277;28;20039;-89
2022/12/05 00:56:31;;;;;;;21.63;12.00;;;5.40;99.90;;;;;;5092729;28;20036;-88
2022/12/05 00:58:58;;;;;;;22.48;11.20;;;5.40;99.90;;;;;;5113394;28;20126;-88
2022/12/05 01:01:27;;;;;;;25.02;12.45;;;5.40;99.90;;;;;;5094040;28;20077;-88
2022/12/05 01:03:56;;;;;;;23.35;11.48;;;5.50;99.90;;;;;;5113101;28;20370;-89
2022/12/05 01:06:22;;;;;;;26.38;13.10;;;5.50;99.90;;;;;;5096469;28;20124;-88
2022/12/05 01:08:48;;;;;;;26.17;13.70;;;5.50;99.90;;;;;;5094985;28;20386;-88
2022/12/05 01:11:16;;;;;;;23.73;13.65;;;5.50;99.90;;;;;;5075718;28;20469;-89
2022/12/05 01:13:42;;;;;;;24.63;13.38;;;5.50;99.90;;;;;;5075058;28;20040;-89
2022/12/05 01:16:16;;;;;;;26.17;12.35;;;5.50;99.90;;;;;;5113016;28;20040;-88
2022/12/05 01:18:42;;;;;;;24.92;13.32;;;5.50;99.90;;;;;;5112338;28;20036;-88
2022/12/05 01:21:08;;;;;;;23.50;12.45;;;5.50;99.90;;;;;;5095426;28;20035;-88
2022/12/05 01:23:33;;;;;;;25.08;13.05;;;5.50;99.90;;;;;;5094717;28;20446;-89
2022/12/05 01:25:59;;;;;;;26.08;14.10;;;5.50;99.90;;;;;;5083392;28;20067;-88
2022/12/05 01:28:25;;;;;;;25.15;13.40;;;5.50;99.90;;;;;;5074889;28;20078;-88
2022/12/05 01:30:50;;;;;;;24.13;12.73;;;5.50;99.90;;;;;;5094448;28;20047;-88
2022/12/05 01:33:16;;;;;;;24.85;13.00;;;5.50;99.90;;;;;;5112293;28;20441;-88
2022/12/05 01:35:42;;;;;;;28.23;14.93;;;5.50;99.90;;;;;;5112200;28;20050;-88
2022/12/05 01:38:11;;;;;;;25.33;12.80;;;5.50;99.90;;;;;;5094703;28;20070;-88
2022/12/05 01:40:36;;;;;;;22.52;13.98;;;5.50;99.90;;;;;;5112420;28;20497;-88
2022/12/05 01:43:03;;;;;;;24.88;13.43;;;5.50;99.90;;;;;;5094950;28;20067;-88
2022/12/05 01:45:38;;;;;;;27.55;14.75;;;5.60;99.90;;;;;;5111080;28;20443;-88
2022/12/05 01:48:13;;;;;;;25.33;13.27;;;5.50;99.90;;;;;;5112171;28;20093;-88
2022/12/05 01:50:39;;;;;;;23.67;12.52;;;5.60;99.90;;;;;;5094243;28;20105;-88
2022/12/05 01:53:05;;;;;;;25.27;13.60;;;5.60;99.90;;;;;;5111201;28;20508;-88
2022/12/05 01:55:33;;;;;;;25.15;13.18;;;5.60;99.90;;;;;;5094682;28;20043;-88
2022/12/05 01:58:00;;;;;;;25.17;14.05;;;5.60;99.90;;;;;;5094847;28;20054;-87
2022/12/05 02:00:25;;;;;;;27.05;14.45;;;5.60;99.90;;;;;;5112651;28;20066;-88
2022/12/05 02:02:57;;;;;;;27.15;13.38;;;5.60;99.90;;;;;;5111099;28;20035;-88
2022/12/05 02:05:27;;;;;;;22.95;13.85;;;5.60;99.90;;;;;;5111692;28;20496;-87
2022/12/05 02:07:53;;;;;;;26.05;13.90;;;5.60;99.90;;;;;;5111307;28;20039;-88
2022/12/05 02:10:19;;;;;;;28.02;14.15;;;5.60;99.90;;;;;;5111565;28;20497;-87
2022/12/05 02:12:45;;;;;;;26.83;14.38;;;5.60;99.90;;;;;;5094503;28;20084;-87
2022/12/05 02:15:33;;;;;;;28.13;14.63;;;5.60;99.90;;;;;;5110920;28;20297;-88
2022/12/05 02:18:04;;;;;;;24.73;14.52;;;5.60;99.90;;;;;;5111999;28;20520;-88
2022/12/05 02:21:02;;;;;;;26.42;13.68;;;5.60;99.90;;;;;;5094254;28;20122;-88
2022/12/05 02:23:36;;;;;;;24.95;13.38;;;5.60;99.90;;;;;;5111278;28;20093;-88
2022/12/05 02:26:35;;;;;;;22.05;11.93;;;5.60;99.90;;;;;;5110407;28;20751;-88
2022/12/05 02:29:23;;;;;;;24.83;13.13;;;5.70;99.90;;;;;;5111593;28;20043;-87
2022/12/05 02:32:29;;;;;;;23.45;13.25;;;5.70;99.90;;;;;;5111266;28;20077;-88
2022/12/05 02:35:10;;;;;;;28.60;14.40;;;5.70;99.90;;;;;;5097337;28;20044;-88
2022/12/05 02:37:46;;;;;;;26.50;13.35;;;5.70;99.90;;;;;;5097063;28;20122;-88
2022/12/05 02:40:14;;;;;;;26.48;13.98;;;5.60;99.90;;;;;;5111120;28;20055;-88
2022/12/05 02:42:59;;;;;;;23.55;12.68;;;5.70;99.90;;;;;;5093999;28;20035;-88
2022/12/05 02:45:29;;;;;;;26.23;13.70;;;5.70;99.90;;;;;;5092826;28;20039;-88
2022/12/05 02:47:55;;;;;;;25.45;13.88;;;5.70;99.90;;;;;;5111013;28;20519;-88
2022/12/05 02:50:29;;;;;;;28.05;14.70;;;5.70;99.90;;;;;;5111005;28;20036;-88
2022/12/05 02:52:58;;;;;;;26.25;13.82;;;5.70;99.90;;;;;;5110494;28;20131;-88
2022/12/05 02:55:27;;;;;;;28.50;14.73;;;5.70;99.90;;;;;;5111516;28;20078;-88
2022/12/05 02:57:56;;;;;;;29.60;13.93;;;5.70;99.90;;;;;;5094158;28;20516;-87
2022/12/05 03:00:22;;;;;;;27.35;14.68;;;5.80;99.90;;;;;;5111235;28;20428;-87
2022/12/05 03:02:52;;;;;;;27.15;14.63;;;5.80;99.90;;;;;;5092815;28;20043;-88
2022/12/05 03:05:27;;;;;;;27.60;14.95;;;5.80;99.90;;;;;;5093486;28;20404;-88
2022/12/05 03:07:55;;;;;;;35.05;16.05;;;5.80;99.90;;;;;;5093176;28;20036;-88
2022/12/05 03:10:26;;;;;;;26.35;13.50;;;5.80;99.90;;;;;;5075738;28;20043;-88
2022/12/05 03:13:01;;;;;;;31.83;15.85;;;5.80;99.90;;;;;;5072946;28;20051;-88
2022/12/05 03:15:34;;;;;;;24.70;13.10;;;5.80;99.90;;;;;;5098780;28;20101;-88
2022/12/05 03:18:05;;;;;;;32.92;13.50;;;5.80;99.90;;;;;;5091235;28;20150;-88
2022/12/05 03:20:59;;;;;;;28.00;14.32;;;5.80;99.90;;;;;;5102152;28;20493;-88
2022/12/05 03:23:38;;;;;;;25.83;14.65;;;5.80;99.90;;;;;;5035895;28;20098;-88
2022/12/05 03:26:22;;;;;;;25.13;13.88;;;5.90;99.90;;;;;;5094705;28;20092;-88
2022/12/05 03:29:20;;;;;;;25.55;15.38;;;5.90;99.90;;;;;;5073503;28;20140;-88
2022/12/05 03:32:12;;;;;;;27.70;14.65;;;5.90;99.90;;;;;;5084115;28;20032;-88
2022/12/05 03:35:12;;;;;;;28.98;13.52;;;5.90;99.90;;;;;;5110682;28;20088;-88
2022/12/05 03:38:00;;;;;;;27.00;14.70;;;5.90;99.90;;;;;;5110018;28;20634;-88
2022/12/05 03:40:32;;;;;;;27.42;13.90;;;5.90;99.90;;;;;;5093368;28;20049;-88
2022/12/05 03:43:08;;;;;;;26.20;13.38;;;5.90;99.90;;;;;;5091562;28;20040;-88
2022/12/05 03:45:52;;;;;;;28.50;14.55;;;5.90;99.90;;;;;;5110080;28;20032;-87
2022/12/05 03:48:41;;;;;;;30.20;14.73;;;5.90;99.90;;;;;;5092938;28;20031;-88
2022/12/05 03:51:10;;;;;;;26.90;14.65;;;5.90;99.90;;;;;;5108941;28;20048;-87
2022/12/05 03:54:04;;;;;;;25.05;12.98;;;5.90;99.90;;;;;;5092824;28;20574;-88
2022/12/05 03:56:35;;;;;;;29.10;14.05;;;5.90;99.90;;;;;;5099805;28;20040;-88
2022/12/05 03:59:12;;;;;;;28.55;14.82;;;6.00;99.90;;;;;;5073500;28;20036;-88
2022/12/05 04:01:41;;;;;;;27.90;15.15;;;6.00;99.90;;;;;;5093775;28;20038;-88
2022/12/05 04:04:23;;;;;;;28.33;13.85;;;6.00;99.90;;;;;;5092441;28;20088;-88
2022/12/05 04:06:51;;;;;;;26.48;13.05;;;6.00;99.90;;;;;;5109080;28;20046;-88
2022/12/05 04:09:23;;;;;;;26.35;13.50;;;6.00;99.90;;;;;;5100437;28;20126;-88
2022/12/05 04:11:53;;;;;;;24.00;13.07;;;6.00;99.90;;;;;;5109754;28;20121;-88
2022/12/05 04:14:27;;;;;;;27.75;14.32;;;6.00;99.90;;;;;;5109768;28;20047;-88
2022/12/05 04:17:08;;;;;;;26.77;14.02;;;6.10;99.90;;;;;;5116879;28;20534;-88
2022/12/05 04:22:23;;;;;;;26.25;12.35;;;6.10;99.90;;;;;;5116103;28;20508;-88
2022/12/05 04:27:55;;;;;;;28.63;13.60;;;6.10;99.90;;;;;;5104574;28;20043;-88
2022/12/05 04:30:24;;;;;;;29.60;14.45;;;6.10;99.90;;;;;;5096206;28;20062;-88
2022/12/05 04:33:12;;;;;;;28.10;14.40;;;6.10;99.90;;;;;;5083577;27;20027;-88
2022/12/05 04:35:52;;;;;;;25.88;13.40;;;6.10;99.90;;;;;;5116203;28;20531;-88
2022/12/05 04:38:26;;;;;;;26.05;12.75;;;6.10;99.90;;;;;;5117058;28;20417;-88
2022/12/05 04:40:57;;;;;;;26.17;14.57;;;6.10;99.90;;;;;;5098446;28;20083;-88
2022/12/05 04:43:25;;;;;;;25.85;13.82;;;6.10;99.90;;;;;;5116138;28;20036;-88
2022/12/05 04:45:53;;;;;;;25.40;13.80;;;6.20;99.90;;;;;;5115743;28;20101;-88
2022/12/05 04:48:20;;;;;;;29.10;12.73;;;6.20;99.90;;;;;;5098908;28;20464;-88
2022/12/05 04:50:48;;;;;;;26.75;13.95;;;6.20;99.90;;;;;;5099332;28;20040;-88
2022/12/05 04:53:15;;;;;;;23.95;13.20;;;6.20;99.90;;;;;;5098365;28;20031;-88
2022/12/05 04:55:46;;;;;;;27.85;14.10;;;6.20;99.90;;;;;;5115450;28;20122;-88
2022/12/05 04:58:18;;;;;;;28.88;13.68;;;6.20;99.90;;;;;;5116131;28;20044;-88
2022/12/05 05:01:24;;;;;;;26.13;12.70;;;6.20;99.90;;;;;;5083798;28;20078;-88
2022/12/05 05:03:56;;;;;;;26.77;12.98;;;6.20;99.90;;;;;;5116424;28;20050;-88
2022/12/05 05:06:22;;;;;;;23.10;11.50;;;6.20;99.90;;;;;;5098555;28;20047;-88
2022/12/05 05:08:56;;;;;;;27.90;13.88;;;6.20;99.90;;;;;;5116530;28;20073;-88
2022/12/05 05:11:23;;;;;;;27.13;13.80;;;6.20;99.90;;;;;;5116014;28;20517;-88
2022/12/05 05:13:49;;;;;;;27.95;13.70;;;6.20;99.90;;;;;;5097890;28;20633;-88
2022/12/05 05:16:18;;;;;;;25.77;13.75;;;6.20;99.90;;;;;;5116378;28;20075;-88
2022/12/05 05:18:45;;;;;;;28.48;13.65;;;6.20;99.90;;;;;;5098269;28;20028;-88
2022/12/05 05:21:32;;;;;;;26.60;13.15;;;6.20;99.90;;;;;;5116637;28;20035;-88
2022/12/05 05:23:59;;;;;;;21.02;12.82;;;6.20;99.90;;;;;;5098673;28;20403;-88
2022/12/05 05:26:26;;;;;;;24.90;13.23;;;6.20;99.90;;;;;;5112650;28;20055;-88
2022/12/05 05:28:53;;;;;;;26.17;13.65;;;6.20;99.90;;;;;;5089260;28;20039;-88
2022/12/05 05:31:19;;;;;;;24.35;13.40;;;6.20;99.90;;;;;;5095176;28;20119;-88
2022/12/05 05:33:49;;;;;;;22.95;13.13;;;6.20;99.90;;;;;;5112335;28;20051;-88
2022/12/05 05:36:14;;;;;;;27.10;13.15;;;6.20;99.90;;;;;;5109802;28;20413;-88
2022/12/05 05:38:45;;;;;;;24.38;12.27;;;6.20;99.90;;;;;;5096351;28;20584;-88
2022/12/05 05:41:15;;;;;;;22.70;13.18;;;6.20;99.90;;;;;;5095691;28;20135;-88
2022/12/05 05:43:41;;;;;;;24.13;12.93;;;6.30;99.90;;;;;;5112000;28;20075;-88
2022/12/05 05:46:08;;;;;;;23.10;12.90;;;6.20;99.90;;;;;;5094947;28;20492;-88
2022/12/05 05:48:34;;;;;;;23.52;13.48;;;6.30;99.90;;;;;;5111158;28;20039;-88
2022/12/05 05:51:01;;;;;;;24.23;13.10;;;6.30;99.90;;;;;;5112497;28;20046;-88
2022/12/05 05:53:26;;;;;;;27.30;12.73;;;6.30;99.90;;;;;;5094416;28;20070;-88
2022/12/05 05:55:52;;;;;;;24.50;13.05;;;6.20;99.90;;;;;;5094722;28;20043;-88
2022/12/05 05:58:17;;;;;;;20.17;11.15;;;6.20;99.90;;;;;;5111071;28;20420;-88
2022/12/05 06:00:43;;;;;;;22.65;12.07;;;6.30;99.90;;;;;;5093214;28;20031;-88
2022/12/05 06:03:09;;;;;;;22.10;10.73;;;6.20;99.90;;;;;;5093056;28;20053;-88
2022/12/05 06:05:34;;;;;;;21.02;11.52;;;6.30;99.90;;;;;;5110215;28;20488;-88
2022/12/05 06:08:00;;;;;;;20.90;11.30;;;6.30;99.90;;;;;;5094015;28;20128;-88
2022/12/05 06:10:25;;;;;;;21.30;11.13;;;6.30;99.90;;;;;;5074121;28;20040;-88
2022/12/05 06:12:51;;;;;;;20.67;11.63;;;6.30;99.90;;;;;;5075065;28;20047;-88
2022/12/05 06:15:17;;;;;;;22.73;11.50;;;6.30;99.90;;;;;;5081441;28;20122;-88
2022/12/05 06:17:42;;;;;;;20.85;11.25;;;6.30;99.90;;;;;;5074738;28;20429;-88
2022/12/05 06:20:08;;;;;;;20.33;11.60;;;6.30;99.90;;;;;;5086974;28;20666;-88
2022/12/05 06:22:34;;;;;;;21.25;11.20;;;6.30;99.90;;;;;;5111489;28;20032;-87
2022/12/05 06:25:00;;;;;;;19.25;10.30;;;6.30;99.90;;;;;;5111041;28;20118;-88
2022/12/05 06:27:28;;;;;;;19.67;10.18;;;6.30;99.90;;;;;;5081414;28;20032;-88
2022/12/05 06:29:54;;;;;;;20.77;10.98;;;6.30;99.90;;;;;;5091463;28;20471;-88
2022/12/05 06:32:19;;;;;;;20.00;10.70;;;6.30;99.90;;;;;;5090111;28;20599;-88
2022/12/05 06:34:45;;;;;;;19.25;10.68;;;6.30;99.90;;;;;;5105613;28;20039;-89
2022/12/05 06:37:11;;;;;;;20.05;10.45;;;6.30;99.90;;;;;;5094139;28;20050;-88
2022/12/05 06:39:37;;;;;;;18.08;9.95;;;6.30;99.90;;;;;;5110602;28;20036;-88
2022/12/05 06:42:03;;;;;;;20.83;9.85;;;6.30;99.90;;;;;;5111588;28;20400;-88
2022/12/05 06:44:29;;;;;;;18.83;9.93;;;6.30;99.90;;;;;;5094003;28;20472;-88
2022/12/05 06:46:55;;;;;;;18.73;10.48;;;6.30;99.90;;;;;;5110312;28;20122;-88
2022/12/05 06:49:21;;;;;;;16.63;9.02;;;6.30;99.90;;;;;;5110775;28;20520;-88
2022/12/05 06:51:47;;;;;;;18.05;9.15;;;6.30;99.90;;;;;;5092343;28;20044;-88
2022/12/05 06:54:13;;;;;;;16.83;8.73;;;6.30;99.90;;;;;;5073112;28;20097;-88
2022/12/05 06:56:39;;;;;;;16.67;8.27;;;6.30;99.90;;;;;;5073746;28;20419;-88
2022/12/05 06:59:05;;;;;;;16.50;9.43;;;6.30;99.90;;;;;;5094368;28;20486;-88
2022/12/05 07:01:40;;;;;;;16.05;7.70;;;6.30;99.90;;;;;;5095599;28;20035;-88
2022/12/05 07:04:15;;;;;;;16.98;9.07;;;6.30;99.90;;;;;;5097277;28;20039;-88
2022/12/05 07:06:43;;;;;;;16.65;9.23;;;6.30;99.90;;;;;;5093455;28;20043;-88
2022/12/05 07:09:09;;;;;;;15.13;8.10;;;6.30;99.90;;;;;;5109669;28;20092;-89
2022/12/05 07:11:36;;;;;;;15.30;8.23;;;6.30;99.90;;;;;;5110930;28;20035;-88
2022/12/05 07:14:02;;;;;;;16.50;9.05;;;6.30;99.90;;;;;;5083890;28;20035;-88
2022/12/05 07:16:28;;;;;;;17.08;8.82;;;6.40;99.90;;;;;;5090069;28;20089;-88
2022/12/05 07:18:55;;;;;;;15.77;9.07;;;6.40;99.90;;;;;;5090417;28;20040;-88
2022/12/05 07:21:21;;;;;;;16.13;7.88;;;6.40;99.90;;;;;;5092938;28;20124;-88
2022/12/05 07:23:48;;;;;;;14.57;8.35;;;6.40;99.90;;;;;;5110010;28;20118;-88
2022/12/05 07:26:17;;;;;;;15.13;7.20;;;6.40;99.90;;;;;;5093360;28;20027;-88
2022/12/05 07:28:43;;;;;;;15.20;7.90;;;6.40;99.90;;;;;;5093545;28;20038;-89
2022/12/05 07:31:14;;;;;;;13.43;6.72;;;6.40;99.90;;;;;;5109230;28;20039;-88
2022/12/05 07:33:40;;;;;;;12.87;5.90;;;6.40;99.90;;;;;;5093150;28;20465;-88
2022/12/05 07:36:13;;;;;;;10.15;5.30;;;6.40;99.90;;;;;;5093110;28;20124;-88
2022/12/05 07:38:39;;;;;;;9.35;5.45;;;6.50;99.90;;;;;;5110174;28;20051;-88
2022/12/05 07:41:26;;;;;;;9.38;4.57;;;6.40;99.90;;;;;;5110636;28;20062;-88
2022/12/05 07:43:54;;;;;;;9.88;4.57;;;6.40;99.90;;;;;;5107494;28;20032;-87
2022/12/05 07:46:20;;;;;;;8.85;4.18;;;6.50;99.90;;;;;;5088771;28;20032;-88
2022/12/05 07:48:47;;;;;;;8.23;3.88;;;6.50;99.90;;;;;;5097221;28;20028;-88
2022/12/05 07:51:13;;;;;;;9.07;4.18;;;6.50;99.90;;;;;;5092152;28;20047;-88
2022/12/05 07:53:41;;;;;;;8.27;3.33;;;6.50;99.90;;;;;;5108180;28;20043;-87
2022/12/05 07:56:08;;;;;;;7.70;3.58;;;6.50;99.90;;;;;;5109331;28;20412;-88
2022/12/05 07:58:34;;;;;;;7.15;3.30;;;6.50;99.90;;;;;;5092490;28;20048;-88
2022/12/05 08:01:12;;;;;;;9.95;3.90;;;6.50;99.90;;;;;;5091509;28;20074;-88
2022/12/05 08:03:38;;;;;;;8.95;3.22;;;6.60;99.90;;;;;;5109156;28;20126;-88
2022/12/05 08:06:06;;;;;;;8.38;3.45;;;6.50;99.90;;;;;;5092343;28;20429;-88
2022/12/05 08:08:32;;;;;;;7.35;2.95;;;6.50;99.90;;;;;;5091872;28;20036;-87
2022/12/05 08:11:06;;;;;;;8.50;3.42;;;6.60;99.90;;;;;;5092501;28;20075;-88
2022/12/05 08:13:32;;;;;;;8.10;3.28;;;6.50;99.90;;;;;;5090860;28;20089;-87
2022/12/05 08:16:03;;;;;;;9.60;3.83;;;6.60;99.90;;;;;;5108742;28;20085;-88
2022/12/05 08:18:29;;;;;;;8.95;3.55;;;6.60;99.90;;;;;;5092898;28;20054;-87
2022/12/05 08:20:59;;;;;;;7.85;3.17;;;6.60;99.90;;;;;;5105442;28;20559;-87
2022/12/05 08:23:27;;;;;;;9.65;3.67;;;6.60;99.90;;;;;;5088847;28;20078;-88
2022/12/05 08:25:53;;;;;;;8.27;3.60;;;6.60;99.90;;;;;;5097601;28;20082;-88
2022/12/05 08:28:19;;;;;;;7.32;3.22;;;6.60;99.90;;;;;;5087776;28;20036;-88
2022/12/05 08:30:44;;;;;;;8.60;3.55;;;6.60;99.90;;;;;;5076272;28;20035;-89
2022/12/05 08:33:10;;;;;;;9.60;3.70;;;6.60;99.90;;;;;;5108138;28;20050;-89
2022/12/05 08:35:36;;;;;;;8.85;3.70;;;6.60;99.90;;;;;;5091591;28;20043;-88
2022/12/05 08:38:02;;;;;;;7.97;3.30;;;6.60;99.90;;;;;;5108671;28;20122;-89
2022/12/05 08:40:27;;;;;;;7.80;3.15;;;6.70;99.90;;;;;;5102306;28;20120;-88
2022/12/05 08:42:53;;;;;;;8.48;4.07;;;6.60;99.90;;;;;;5095738;28;20046;-88
2022/12/05 08:45:18;;;;;;;10.88;3.58;;;6.60;99.90;;;;;;5108577;28;20040;-88
2022/12/05 08:47:44;;;;;;;7.45;3.05;;;6.70;99.90;;;;;;5107778;28;20027;-88
2022/12/05 08:50:10;;;;;;;8.15;3.45;;;6.70;99.90;;;;;;5108368;28;20500;-88
2022/12/05 08:52:35;;;;;;;8.57;3.50;;;6.70;99.90;;;;;;5108033;28;20043;-88
2022/12/05 08:55:01;;;;;;;6.75;3.15;;;6.70;99.90;;;;;;5090794;28;20082;-88
2022/12/05 08:57:27;;;;;;;9.05;3.20;;;6.70;99.90;;;;;;5108926;28;20040;-88
2022/12/05 08:59:52;;;;;;;9.35;4.03;;;6.70;99.90;;;;;;5091103;28;20641;-88
2022/12/05 09:02:18;;;;;;;7.75;3.47;;;6.70;99.90;;;;;;5110282;28;20114;-88
2022/12/05 09:04:43;;;;;;;8.07;3.60;;;6.70;99.90;;;;;;5096411;28;20036;-88
2022/12/05 09:07:09;;;;;;;7.80;3.58;;;6.70;99.90;;;;;;5111027;28;20089;-87
2022/12/05 09:09:34;;;;;;;8.52;3.70;;;6.70;99.90;;;;;;5095664;28;20081;-88
2022/12/05 09:12:00;;;;;;;9.45;3.88;;;6.70;99.90;;;;;;5094941;28;20046;-88
2022/12/05 09:14:31;;;;;;;8.65;3.53;;;6.70;99.90;;;;;;5093166;28;20047;-88
2022/12/05 09:16:58;;;;;;;8.70;3.70;;;6.70;99.90;;;;;;5093936;28;20043;-88
2022/12/05 09:19:25;;;;;;;8.68;3.65;;;6.70;99.90;;;;;;5091778;28;20123;-88
2022/12/05 09:21:51;;;;;;;9.43;3.92;;;6.70;99.90;;;;;;5075383;28;20046;-87
2022/12/05 09:24:16;;;;;;;8.90;3.70;;;6.70;99.90;;;;;;5100105;28;20048;-87
2022/12/05 09:26:42;;;;;;;10.15;4.05;;;6.70;99.90;;;;;;5111351;28;20042;-89
2022/12/05 09:29:09;;;;;;;8.85;4.25;;;6.70;99.90;;;;;;5095358;28;20071;-89
2022/12/05 09:31:35;;;;;;;11.85;4.53;;;6.70;99.90;;;;;;5093833;28;20028;-88
2022/12/05 09:34:01;;;;;;;8.70;3.85;;;6.70;99.90;;;;;;5112128;28;20396;-89
2022/12/05 09:36:29;;;;;;;8.90;3.97;;;6.70;99.90;;;;;;5095447;28;20036;-89
2022/12/05 09:38:58;;;;;;;9.07;4.35;;;6.70;99.90;;;;;;5110924;28;20069;-89
2022/12/05 09:44:40;;;;;;;8.63;3.78;;;6.70;99.90;;;;;;5111299;28;20411;-88
2022/12/05 09:47:34;;;;;;;9.93;4.35;;;6.70;99.90;;;;;;5111833;28;20027;-88
2022/12/05 09:50:15;;;;;;;10.80;4.75;;;6.70;99.90;;;;;;5094129;28;20470;-88
2022/12/05 09:52:49;;;;;;;9.32;4.82;;;6.70;99.90;;;;;;5070106;28;20123;-89
2022/12/05 09:55:17;;;;;;;11.98;5.55;;;6.70;99.90;;;;;;5054649;28;20047;-89
2022/12/05 09:57:51;;;;;;;10.43;4.43;;;6.70;99.90;;;;;;5104118;28;20048;-89
2022/12/05 10:00:17;;;;;;;11.35;5.03;;;6.70;99.90;;;;;;5055270;28;20516;-89
2022/12/05 10:03:02;;;;;;;8.82;4.75;;;6.80;99.90;;;;;;5090393;28;20508;-89
2022/12/05 10:05:51;;;;;;;10.15;4.68;;;6.70;99.90;;;;;;5090773;28;20511;-89
2022/12/05 10:08:31;;;;;;;9.20;4.50;;;6.70;99.90;;;;;;5072481;28;20032;-88
2022/12/05 10:11:08;;;;;;;10.02;4.82;;;6.70;99.90;;;;;;5104013;28;20082;-89
2022/12/05 10:14:00;;;;;;;10.60;4.43;;;6.80;99.90;;;;;;5106254;28;20078;-88
2022/12/05 10:16:40;;;;;;;9.65;4.55;;;6.70;99.90;;;;;;5092847;28;20093;-88
2022/12/05 10:19:29;;;;;;;10.15;4.53;;;6.70;99.90;;;;;;5080900;28;20048;-87
2022/12/05 10:22:03;;;;;;;11.15;4.78;;;6.80;99.90;;;;;;5082557;28;20071;-88
2022/12/05 10:24:36;;;;;;;10.13;4.55;;;6.70;99.90;;;;;;5111131;28;20040;-88
2022/12/05 10:27:05;;;;;;;9.50;4.57;;;6.70;99.90;;;;;;5110448;28;20039;-87
2022/12/05 10:29:38;;;;;;;9.85;4.57;;;6.70;99.90;;;;;;5092105;28;20118;-88
2022/12/05 10:32:13;;;;;;;10.48;4.72;;;6.70;99.90;;;;;;5110766;28;20039;-88
2022/12/05 10:34:41;;;;;;;13.52;4.90;;;6.70;99.90;;;;;;5089125;28;20124;-88
2022/12/05 10:37:14;;;;;;;11.55;5.07;;;6.70;99.90;;;;;;5089827;28;20075;-87
2022/12/05 10:39:41;;;;;;;9.93;4.22;;;6.70;99.90;;;;;;5111182;28;20054;-88
2022/12/05 10:42:13;;;;;;;10.65;4.55;;;6.70;99.90;;;;;;5092847;28;20066;-88
2022/12/05 10:44:39;;;;;;;11.38;4.82;;;6.80;99.90;;;;;;5093839;28;20039;-88
2022/12/05 10:47:05;;;;;;;11.15;5.28;;;6.70;99.90;;;;;;5107378;28;20039;-88
2022/12/05 10:49:32;;;;;;;10.93;4.30;;;6.70;99.90;;;;;;5103765;28;20047;-88
2022/12/05 10:51:59;;;;;;;10.48;5.15;;;6.70;99.90;;;;;;5109350;28;20088;-88
2022/12/05 10:54:28;;;;;;;12.48;5.50;;;6.70;99.90;;;;;;5085112;28;20520;-88
2022/12/05 10:56:55;;;;;;;12.30;5.70;;;6.70;99.90;;;;;;5085020;28;20040;-88
2022/12/05 10:59:25;;;;;;;10.95;5.05;;;6.70;99.90;;;;;;5080231;28;20524;-87
2022/12/05 11:01:56;;;;;;;12.35;5.43;;;6.70;99.90;;;;;;5106922;28;20039;-88
2022/12/05 11:04:30;;;;;;;10.75;4.95;;;6.70;99.90;;;;;;5092018;28;20135;-91
2022/12/05 11:06:57;;;;;;;13.10;5.38;;;6.70;99.90;;;;;;5100811;28;20051;-88
2022/12/05 11:09:32;;;;;;;12.07;5.60;;;6.70;99.90;;;;;;5108363;28;20147;-89
2022/12/05 11:12:14;;;;;;;12.63;5.43;;;6.70;99.90;;;;;;5107128;28;20042;-89
2022/12/05 11:15:03;;;;;;;12.97;5.40;;;6.80;99.90;;;;;;5094684;28;20046;-88
2022/12/05 11:17:35;;;;;;;12.88;5.20;;;6.80;99.90;;;;;;5109550;28;20039;-89
2022/12/05 11:20:02;;;;;;;11.95;5.07;;;6.70;99.90;;;;;;5091677;28;20039;-87
2022/12/05 11:22:34;;;;;;;12.35;5.00;;;6.70;99.90;;;;;;5072453;28;20114;-89
2022/12/05 11:25:00;;;;;;;10.60;5.10;;;6.80;99.90;;;;;;5085898;28;20035;-88
2022/12/05 11:27:31;;;;;;;11.82;4.97;;;6.80;99.90;;;;;;5092094;28;20124;-88
2022/12/05 11:30:13;;;;;;;11.73;4.88;;;6.70;99.90;;;;;;5091350;28;20042;-88
2022/12/05 11:32:39;;;;;;;12.23;5.03;;;6.70;99.90;;;;;;5087482;28;20389;-90
2022/12/05 11:35:23;;;;;;;11.23;5.53;;;6.70;99.90;;;;;;5072683;28;20036;-89
2022/12/05 11:38:00;;;;;;;13.13;4.60;;;6.70;99.90;;;;;;5105009;28;20039;-88
2022/12/05 11:41:03;;;;;;;11.48;5.05;;;6.70;99.90;;;;;;5092814;28;20052;-88
2022/12/05 11:44:19;;;;;;;11.75;5.03;;;6.70;99.90;;;;;;5092029;28;20035;-88
2022/12/05 11:47:09;;;;;;;11.07;4.78;;;6.70;99.90;;;;;;5089146;28;20035;-88
2022/12/05 11:50:17;;;;;;;12.18;4.28;;;6.70;99.90;;;;;;5105452;28;20039;-88
2022/12/05 11:53:15;;;;;;;9.10;3.80;;;6.70;99.90;;;;;;5009994;28;20049;-89
2022/12/05 11:56:20;;;;;;;11.05;4.68;;;6.70;99.90;;;;;;5091798;28;20039;-88
2022/12/05 11:59:02;;;;;;;10.85;5.00;;;6.70;99.90;;;;;;5109089;28;20044;-88
2022/12/05 12:01:31;;;;;;;8.98;4.25;;;6.70;99.90;;;;;;5091247;28;20066;-88
2022/12/05 12:04:08;;;;;;;13.68;4.45;;;6.70;99.90;;;;;;5109582;28;20035;-88
2022/12/05 12:06:58;;;;;;;10.40;4.32;;;6.70;99.90;;;;;;5108670;28;20067;-89
2022/12/05 12:09:31;;;;;;;9.27;3.85;;;6.70;99.90;;;;;;5091746;28;20123;-88
2022/12/05 12:12:15;;;;;;;10.02;4.15;;;6.70;99.90;;;;;;5108244;28;20039;-89
2022/12/05 12:14:59;;;;;;;8.05;3.47;;;6.70;99.90;;;;;;5092231;28;20036;-88
2022/12/05 12:17:56;;;;;;;8.57;3.78;;;6.70;99.90;;;;;;5108737;28;20028;-89
2022/12/05 12:20:40;;;;;;;10.20;4.38;;;6.70;99.90;;;;;;5092278;28;20039;-89
2022/12/05 12:23:31;;;;;;;10.25;4.03;;;6.70;99.90;;;;;;5108672;28;20047;-89
2022/12/05 12:26:14;;;;;;;8.68;3.85;;;6.70;99.90;;;;;;5094147;28;20040;-88
2022/12/05 12:28:56;;;;;;;;;;;6.80;99.90;;;;;;5089300;28;20032;-88
2022/12/05 12:31:49;;;;;;;10.68;4.47;;;6.80;99.90;;;;;;5091596;28;19923;-88
2022/12/05 12:34:48;;;;;;;10.63;4.68;;;6.80;99.90;;;;;;5107725;28;20039;-88
2022/12/05 12:37:33;;;;;;;8.38;3.38;;;6.80;99.90;;;;;;5105458;28;20409;-88
2022/12/05 12:40:17;;;;;;;11.48;3.92;;;6.80;99.90;;;;;;5056346;28;20140;-89
2022/12/05 12:42:51;;;;;;;9.73;3.45;;;6.70;99.90;;;;;;5097275;28;20059;-88
2022/12/05 12:45:26;;;;;;;9.13;3.65;;;6.80;99.90;;;;;;5083208;28;20405;-88
2022/12/05 12:48:11;;;;;;;9.48;3.42;;;6.80;99.90;;;;;;5078674;28;20392;-88
2022/12/05 12:50:42;;;;;;;9.07;3.78;;;6.80;99.90;;;;;;5096161;28;20040;-88
2022/12/05 12:53:45;;;;;;;8.57;3.63;;;6.80;99.90;;;;;;5089113;28;20111;-88
2022/12/05 12:56:29;;;;;;;7.68;3.55;;;6.80;99.90;;;;;;5092549;28;20040;-89
2022/12/05 12:59:29;;;;;;;8.23;3.28;;;6.80;99.90;;;;;;5084279;28;20039;-89
2022/12/05 13:02:03;;;;;;;7.45;3.38;;;6.80;99.90;;;;;;5095625;28;20055;-89
2022/12/05 13:04:40;;;;;;;9.77;3.92;;;6.80;99.90;;;;;;5111831;28;20046;-88
2022/12/05 13:07:14;;;;;;;9.93;4.43;;;6.80;99.90;;;;;;5095806;28;20593;-88
2022/12/05 13:09:52;;;;;;;10.40;3.80;;;6.80;99.90;;;;;;5095251;28;20035;-89
2022/12/05 13:12:25;;;;;;;8.45;2.85;;;6.80;99.90;;;;;;5111778;28;20032;-88
2022/12/05 13:15:06;;;;;;;8.18;3.50;;;6.80;99.90;;;;;;5095633;28;20035;-89
2022/12/05 13:17:32;;;;;;;8.20;3.05;;;6.80;99.90;;;;;;5105465;28;20418;-89
2022/12/05 13:19:59;;;;;;;7.38;3.05;;;6.80;99.90;;;;;;5109932;28;20040;-89